sensor_id;sensor_type;location;lat;lon;timestamp;pressure;altitude;pressure_sealevel;temperature;humidity
38022;BME280;23832;43.216;27.946;2022-12-26T00:00:53;101839.63;;;11.98;90.26
38022;BME280;23832;43.216;27.946;2022-12-26T00:02:54;101854.66;;;11.98;90.16
38022;BME280;23832;43.216;27.946;2022-12-26T00:04:56;101856.31;;;11.99;90.95
38022;BME280;23832;43.216;27.946;2022-12-26T00:06:57;101858.97;;;11.99;91.14
38022;BME280;23832;43.216;27.946;2022-12-26T00:09:00;101862.44;;;11.99;91.50
38022;BME280;23832;43.216;27.946;2022-12-26T00:11:02;101867.56;;;12.01;90.97
38022;BME280;23832;43.216;27.946;2022-12-26T00:13:03;101861.59;;;11.99;90.48
38022;BME280;23832;43.216;27.946;2022-12-26T00:15:05;101873.00;;;11.99;90.83
38022;BME280;23832;43.216;27.946;2022-12-26T00:17:09;101874.81;;;11.99;90.58
38022;BME280;23832;43.216;27.946;2022-12-26T00:19:13;101867.88;;;11.98;89.78
38022;BME280;23832;43.216;27.946;2022-12-26T00:21:15;101876.09;;;11.94;90.43
38022;BME280;23832;43.216;27.946;2022-12-26T00:23:18;101871.94;;;11.92;91.34
38022;BME280;23832;43.216;27.946;2022-12-26T00:25:20;101871.44;;;11.88;93.22
38022;BME280;23832;43.216;27.946;2022-12-26T00:27:21;101884.91;;;11.85;94.87
38022;BME280;23832;43.216;27.946;2022-12-26T00:29:23;101882.75;;;11.81;96.02
38022;BME280;23832;43.216;27.946;2022-12-26T00:31:25;101889.13;;;11.78;97.81
38022;BME280;23832;43.216;27.946;2022-12-26T00:33:29;101891.06;;;11.76;98.00
38022;BME280;23832;43.216;27.946;2022-12-26T00:35:31;101889.41;;;11.75;99.02
38022;BME280;23832;43.216;27.946;2022-12-26T00:37:32;101883.47;;;11.73;99.97
38022;BME280;23832;43.216;27.946;2022-12-26T00:39:34;101884.44;;;11.72;99.82
38022;BME280;23832;43.216;27.946;2022-12-26T00:41:35;101884.59;;;11.71;99.10
38022;BME280;23832;43.216;27.946;2022-12-26T00:43:37;101883.06;;;11.68;100.00
38022;BME280;23832;43.216;27.946;2022-12-26T00:45:42;101890.31;;;11.66;100.00
38022;BME280;23832;43.216;27.946;2022-12-26T00:47:44;101893.09;;;11.64;100.00
38022;BME280;23832;43.216;27.946;2022-12-26T00:49:47;101895.91;;;11.63;100.00
38022;BME280;23832;43.216;27.946;2022-12-26T00:51:49;101892.59;;;11.61;100.00
38022;BME280;23832;43.216;27.946;2022-12-26T00:53:50;101886.75;;;11.57;100.00
38022;BME280;23832;43.216;27.946;2022-12-26T00:55:52;101885.09;;;11.56;99.98
38022;BME280;23832;43.216;27.946;2022-12-26T00:57:54;101887.22;;;11.53;98.64
38022;BME280;23832;43.216;27.946;2022-12-26T00:59:55;101892.78;;;11.50;98.33
38022;BME280;23832;43.216;27.946;2022-12-26T01:02:00;101889.59;;;11.46;98.21
38022;BME280;23832;43.216;27.946;2022-12-26T01:04:21;101893.38;;;11.44;98.86
38022;BME280;23832;43.216;27.946;2022-12-26T01:06:24;101888.38;;;11.41;98.92
38022;BME280;23832;43.216;27.946;2022-12-26T01:08:26;101891.31;;;11.37;99.59
38022;BME280;23832;43.216;27.946;2022-12-26T01:10:27;101889.81;;;11.35;99.81
38022;BME280;23832;43.216;27.946;2022-12-26T01:12:29;101886.63;;;11.31;100.00
38022;BME280;23832;43.216;27.946;2022-12-26T01:14:31;101886.94;;;11.28;100.00
38022;BME280;23832;43.216;27.946;2022-12-26T01:16:32;101881.94;;;11.25;100.00
38022;BME280;23832;43.216;27.946;2022-12-26T01:18:34;101887.38;;;11.24;100.00
38022;BME280;23832;43.216;27.946;2022-12-26T01:20:37;101885.84;;;11.21;100.00
38022;BME280;23832;43.216;27.946;2022-12-26T01:22:41;101893.09;;;11.19;100.00
38022;BME280;23832;43.216;27.946;2022-12-26T01:24:43;101897.38;;;11.20;100.00
38022;BME280;23832;43.216;27.946;2022-12-26T01:26:45;101887.97;;;11.18;100.00
38022;BME280;23832;43.216;27.946;2022-12-26T01:28:47;101890.75;;;11.16;100.00
38022;BME280;23832;43.216;27.946;2022-12-26T01:30:49;101903.13;;;11.16;100.00
38022;BME280;23832;43.216;27.946;2022-12-26T01:32:53;101894.38;;;11.15;100.00
38022;BME280;23832;43.216;27.946;2022-12-26T01:34:55;101892.56;;;11.16;100.00
38022;BME280;23832;43.216;27.946;2022-12-26T01:36:56;101887.41;;;11.14;100.00
38022;BME280;23832;43.216;27.946;2022-12-26T01:38:59;101894.50;;;11.14;100.00
38022;BME280;23832;43.216;27.946;2022-12-26T01:41:01;101898.25;;;11.11;100.00
38022;BME280;23832;43.216;27.946;2022-12-26T01:43:18;101883.41;;;11.10;100.00
38022;BME280;23832;43.216;27.946;2022-12-26T01:45:21;101887.03;;;11.09;100.00
38022;BME280;23832;43.216;27.946;2022-12-26T01:47:24;101888.97;;;11.07;100.00
38022;BME280;23832;43.216;27.946;2022-12-26T01:49:28;101889.25;;;11.04;100.00
38022;BME280;23832;43.216;27.946;2022-12-26T01:51:32;101880.66;;;11.02;100.00
38022;BME280;23832;43.216;27.946;2022-12-26T01:53:38;101875.38;;;11.02;100.00
38022;BME280;23832;43.216;27.946;2022-12-26T01:55:44;101883.44;;;11.00;100.00
38022;BME280;23832;43.216;27.946;2022-12-26T01:57:49;101881.78;;;10.99;100.00
38022;BME280;23832;43.216;27.946;2022-12-26T01:59:51;101891.50;;;10.99;100.00
38022;BME280;23832;43.216;27.946;2022-12-26T02:01:54;101898.44;;;11.00;100.00
38022;BME280;23832;43.216;27.946;2022-12-26T02:03:56;101902.06;;;10.99;100.00
38022;BME280;23832;43.216;27.946;2022-12-26T02:06:15;101903.03;;;10.98;100.00
38022;BME280;23832;43.216;27.946;2022-12-26T02:08:18;101900.41;;;10.98;100.00
38022;BME280;23832;43.216;27.946;2022-12-26T02:10:22;101911.78;;;10.98;100.00
38022;BME280;23832;43.216;27.946;2022-12-26T02:12:28;101907.50;;;10.97;100.00
38022;BME280;23832;43.216;27.946;2022-12-26T02:14:30;101925.13;;;10.97;100.00
38022;BME280;23832;43.216;27.946;2022-12-26T02:16:32;101927.06;;;10.95;100.00
38022;BME280;23832;43.216;27.946;2022-12-26T02:18:34;101925.41;;;10.94;100.00
38022;BME280;23832;43.216;27.946;2022-12-26T02:20:38;101922.09;;;10.92;100.00
38022;BME280;23832;43.216;27.946;2022-12-26T02:22:48;101923.22;;;10.89;100.00
38022;BME280;23832;43.216;27.946;2022-12-26T02:25:00;101927.66;;;10.89;100.00
38022;BME280;23832;43.216;27.946;2022-12-26T02:27:16;101947.94;;;10.88;100.00
38022;BME280;23832;43.216;27.946;2022-12-26T02:31:48;101924.59;;;10.84;100.00
38022;BME280;23832;43.216;27.946;2022-12-26T02:33:55;101922.94;;;10.83;100.00
38022;BME280;23832;43.216;27.946;2022-12-26T02:36:10;101924.91;;;10.80;100.00
38022;BME280;23832;43.216;27.946;2022-12-26T02:38:19;101921.59;;;10.78;100.00
38022;BME280;23832;43.216;27.946;2022-12-26T02:40:28;101917.41;;;10.76;100.00
38022;BME280;23832;43.216;27.946;2022-12-26T02:42:34;101917.53;;;10.74;100.00
38022;BME280;23832;43.216;27.946;2022-12-26T02:44:40;101919.50;;;10.72;100.00
38022;BME280;23832;43.216;27.946;2022-12-26T02:47:06;101921.56;;;10.69;100.00
38022;BME280;23832;43.216;27.946;2022-12-26T02:49:12;101917.28;;;10.68;100.00
38022;BME280;23832;43.216;27.946;2022-12-26T02:51:20;101913.13;;;10.65;100.00
38022;BME280;23832;43.216;27.946;2022-12-26T02:53:44;101906.88;;;10.66;100.00
38022;BME280;23832;43.216;27.946;2022-12-26T02:56:06;101908.81;;;10.64;100.00
38022;BME280;23832;43.216;27.946;2022-12-26T02:58:29;101916.75;;;10.64;100.00
38022;BME280;23832;43.216;27.946;2022-12-26T03:00:52;101919.38;;;10.64;100.00
38022;BME280;23832;43.216;27.946;2022-12-26T03:03:15;101923.97;;;10.62;99.82
38022;BME280;23832;43.216;27.946;2022-12-26T03:05:38;101923.25;;;10.60;99.10
38022;BME280;23832;43.216;27.946;2022-12-26T03:07:58;101927.84;;;10.58;98.17
38022;BME280;23832;43.216;27.946;2022-12-26T03:10:21;101921.88;;;10.56;98.08
38022;BME280;23832;43.216;27.946;2022-12-26T03:12:42;101922.19;;;10.53;97.13
38022;BME280;23832;43.216;27.946;2022-12-26T03:15:04;101918.16;;;10.49;96.66
38022;BME280;23832;43.216;27.946;2022-12-26T03:17:10;101921.91;;;10.46;96.53
38022;BME280;23832;43.216;27.946;2022-12-26T03:19:21;101922.19;;;10.43;96.62
38022;BME280;23832;43.216;27.946;2022-12-26T03:21:26;101924.94;;;10.42;96.55
38022;BME280;23832;43.216;27.946;2022-12-26T03:23:28;101924.41;;;10.38;97.04
38022;BME280;23832;43.216;27.946;2022-12-26T03:25:34;101926.50;;;10.35;97.74
38022;BME280;23832;43.216;27.946;2022-12-26T03:27:54;101926.63;;;10.33;98.06
38022;BME280;23832;43.216;27.946;2022-12-26T03:29:56;101913.59;;;10.32;98.99
38022;BME280;23832;43.216;27.946;2022-12-26T03:32:15;101910.25;;;10.30;99.51
38022;BME280;23832;43.216;27.946;2022-12-26T03:34:16;101914.84;;;10.28;99.85
38022;BME280;23832;43.216;27.946;2022-12-26T03:36:20;101914.00;;;10.27;100.00
38022;BME280;23832;43.216;27.946;2022-12-26T03:38:26;101912.34;;;10.26;99.20
38022;BME280;23832;43.216;27.946;2022-12-26T03:40:37;101916.91;;;10.24;99.49
38022;BME280;23832;43.216;27.946;2022-12-26T03:42:58;101912.72;;;10.21;100.00
38022;BME280;23832;43.216;27.946;2022-12-26T03:45:24;101912.88;;;10.20;100.00
38022;BME280;23832;43.216;27.946;2022-12-26T03:47:50;101913.00;;;10.18;99.32
38022;BME280;23832;43.216;27.946;2022-12-26T03:50:13;101908.00;;;10.15;99.36
38022;BME280;23832;43.216;27.946;2022-12-26T03:52:36;101900.38;;;10.12;99.66
38022;BME280;23832;43.216;27.946;2022-12-26T03:55:00;101906.63;;;10.11;99.70
38022;BME280;23832;43.216;27.946;2022-12-26T03:57:20;101911.22;;;10.09;100.00
38022;BME280;23832;43.216;27.946;2022-12-26T03:59:45;101907.75;;;10.09;99.34
38022;BME280;23832;43.216;27.946;2022-12-26T04:02:06;101904.44;;;10.07;98.85
38022;BME280;23832;43.216;27.946;2022-12-26T04:04:28;101907.16;;;10.05;99.01
38022;BME280;23832;43.216;27.946;2022-12-26T04:06:50;101914.38;;;10.03;99.29
38022;BME280;23832;43.216;27.946;2022-12-26T04:09:13;101924.94;;;10.03;97.75
38022;BME280;23832;43.216;27.946;2022-12-26T04:11:32;101916.34;;;10.01;97.20
38022;BME280;23832;43.216;27.946;2022-12-26T04:13:54;101915.66;;;9.99;97.31
38022;BME280;23832;43.216;27.946;2022-12-26T04:16:15;101922.84;;;9.97;95.62
38022;BME280;23832;43.216;27.946;2022-12-26T04:18:42;101930.06;;;9.95;95.43
38022;BME280;23832;43.216;27.946;2022-12-26T04:21:08;101927.41;;;9.95;95.84
38022;BME280;23832;43.216;27.946;2022-12-26T04:23:35;101925.91;;;9.92;95.49
38022;BME280;23832;43.216;27.946;2022-12-26T04:26:01;101927.69;;;9.92;95.51
38022;BME280;23832;43.216;27.946;2022-12-26T04:28:22;101928.69;;;9.91;95.39
38022;BME280;23832;43.216;27.946;2022-12-26T04:30:41;101931.31;;;9.91;95.81
38022;BME280;23832;43.216;27.946;2022-12-26T04:33:06;101940.19;;;9.90;96.45
38022;BME280;23832;43.216;27.946;2022-12-26T04:35:29;101938.38;;;9.90;96.95
38022;BME280;23832;43.216;27.946;2022-12-26T04:37:48;101928.69;;;9.91;96.29
38022;BME280;23832;43.216;27.946;2022-12-26T04:40:09;101939.06;;;9.92;96.39
38022;BME280;23832;43.216;27.946;2022-12-26T04:42:31;101939.34;;;9.89;96.42
38022;BME280;23832;43.216;27.946;2022-12-26T04:44:51;101935.88;;;9.89;97.09
38022;BME280;23832;43.216;27.946;2022-12-26T04:46:54;101938.78;;;9.86;97.48
38022;BME280;23832;43.216;27.946;2022-12-26T04:48:56;101944.88;;;9.86;98.47
38022;BME280;23832;43.216;27.946;2022-12-26T04:51:15;101950.28;;;9.85;99.94
38022;BME280;23832;43.216;27.946;2022-12-26T04:53:16;101949.59;;;9.83;100.00
38022;BME280;23832;43.216;27.946;2022-12-26T04:55:19;101960.13;;;9.83;100.00
38022;BME280;23832;43.216;27.946;2022-12-26T04:57:20;101972.47;;;9.82;100.00
38022;BME280;23832;43.216;27.946;2022-12-26T04:59:23;101973.44;;;9.81;100.00
38022;BME280;23832;43.216;27.946;2022-12-26T05:01:25;101974.41;;;9.80;100.00
38022;BME280;23832;43.216;27.946;2022-12-26T05:03:44;101976.31;;;9.78;100.00
38022;BME280;23832;43.216;27.946;2022-12-26T05:06:01;101976.47;;;9.77;100.00
38022;BME280;23832;43.216;27.946;2022-12-26T05:08:21;101985.47;;;9.74;100.00
38022;BME280;23832;43.216;27.946;2022-12-26T05:10:42;101988.94;;;9.75;100.00
38022;BME280;23832;43.216;27.946;2022-12-26T05:12:44;101997.81;;;9.74;100.00
38022;BME280;23832;43.216;27.946;2022-12-26T05:14:47;101989.22;;;9.72;100.00
38022;BME280;23832;43.216;27.946;2022-12-26T05:16:48;101986.69;;;9.70;100.00
38022;BME280;23832;43.216;27.946;2022-12-26T05:19:08;101991.13;;;9.70;100.00
38022;BME280;23832;43.216;27.946;2022-12-26T05:21:30;101998.34;;;9.67;100.00
38022;BME280;23832;43.216;27.946;2022-12-26T05:23:49;101996.66;;;9.66;100.00
38022;BME280;23832;43.216;27.946;2022-12-26T05:26:11;102003.03;;;9.64;100.00
38022;BME280;23832;43.216;27.946;2022-12-26T05:28:32;102002.47;;;9.60;100.00
38022;BME280;23832;43.216;27.946;2022-12-26T05:30:44;102007.88;;;9.59;100.00
38022;BME280;23832;43.216;27.946;2022-12-26T05:32:45;102001.75;;;9.58;100.00
38022;BME280;23832;43.216;27.946;2022-12-26T05:35:05;102011.59;;;9.56;100.00
38022;BME280;23832;43.216;27.946;2022-12-26T05:37:07;102009.13;;;9.55;100.00
38022;BME280;23832;43.216;27.946;2022-12-26T05:39:09;102003.00;;;9.54;100.00
38022;BME280;23832;43.216;27.946;2022-12-26T05:41:10;102013.53;;;9.54;100.00
38022;BME280;23832;43.216;27.946;2022-12-26T05:43:12;102013.53;;;9.54;100.00
38022;BME280;23832;43.216;27.946;2022-12-26T05:45:13;102014.25;;;9.56;100.00
38022;BME280;23832;43.216;27.946;2022-12-26T05:47:17;102014.78;;;9.60;100.00
38022;BME280;23832;43.216;27.946;2022-12-26T05:49:18;102018.84;;;9.64;100.00
38022;BME280;23832;43.216;27.946;2022-12-26T05:51:20;102019.16;;;9.71;100.00
38022;BME280;23832;43.216;27.946;2022-12-26T05:53:22;102018.59;;;9.77;100.00
38022;BME280;23832;43.216;27.946;2022-12-26T05:55:24;102029.31;;;9.85;100.00
38022;BME280;23832;43.216;27.946;2022-12-26T05:57:25;102019.06;;;9.91;100.00
38022;BME280;23832;43.216;27.946;2022-12-26T05:59:27;102021.88;;;10.00;100.00
38022;BME280;23832;43.216;27.946;2022-12-26T06:01:29;102014.81;;;10.10;100.00
38022;BME280;23832;43.216;27.946;2022-12-26T06:03:32;102015.66;;;10.20;100.00
38022;BME280;23832;43.216;27.946;2022-12-26T06:05:34;102015.69;;;10.30;100.00
38022;BME280;23832;43.216;27.946;2022-12-26T06:07:36;102016.28;;;10.43;100.00
38022;BME280;23832;43.216;27.946;2022-12-26T06:09:37;102006.28;;;10.56;100.00
38022;BME280;23832;43.216;27.946;2022-12-26T06:11:39;102018.06;;;10.71;100.00
38022;BME280;23832;43.216;27.946;2022-12-26T06:13:40;102014.31;;;10.84;100.00
38022;BME280;23832;43.216;27.946;2022-12-26T06:15:42;102008.59;;;10.98;100.00
38022;BME280;23832;43.216;27.946;2022-12-26T06:17:44;102009.25;;;11.09;100.00
38022;BME280;23832;43.216;27.946;2022-12-26T06:19:47;102014.94;;;11.24;100.00
38022;BME280;23832;43.216;27.946;2022-12-26T06:21:49;102007.50;;;11.37;100.00
38022;BME280;23832;43.216;27.946;2022-12-26T06:23:50;102000.78;;;11.53;100.00
38022;BME280;23832;43.216;27.946;2022-12-26T06:25:54;101997.63;;;11.67;100.00
38022;BME280;23832;43.216;27.946;2022-12-26T06:27:56;102010.25;;;11.83;100.00
38022;BME280;23832;43.216;27.946;2022-12-26T06:29:57;102013.91;;;12.00;100.00
38022;BME280;23832;43.216;27.946;2022-12-26T06:31:59;102016.44;;;12.19;100.00
38022;BME280;23832;43.216;27.946;2022-12-26T06:34:01;102013.63;;;12.38;100.00
38022;BME280;23832;43.216;27.946;2022-12-26T06:36:05;102018.91;;;12.56;100.00
38022;BME280;23832;43.216;27.946;2022-12-26T06:38:07;102017.91;;;12.75;99.77
38022;BME280;23832;43.216;27.946;2022-12-26T06:40:09;102015.09;;;12.94;98.58
38022;BME280;23832;43.216;27.946;2022-12-26T06:42:10;102015.72;;;13.14;96.88
38022;BME280;23832;43.216;27.946;2022-12-26T06:44:12;102013.56;;;13.35;95.51
38022;BME280;23832;43.216;27.946;2022-12-26T06:46:14;102019.44;;;13.55;91.14
38022;BME280;23832;43.216;27.946;2022-12-26T06:48:16;102021.84;;;13.75;89.80
38022;BME280;23832;43.216;27.946;2022-12-26T06:50:18;102022.28;;;13.96;89.01
38022;BME280;23832;43.216;27.946;2022-12-26T06:52:23;102024.31;;;14.18;87.99
38022;BME280;23832;43.216;27.946;2022-12-26T06:54:25;102025.34;;;14.42;85.64
38022;BME280;23832;43.216;27.946;2022-12-26T06:56:27;102022.06;;;14.64;82.33
38022;BME280;23832;43.216;27.946;2022-12-26T06:58:28;102027.72;;;14.86;79.35
38022;BME280;23832;43.216;27.946;2022-12-26T07:00:30;102030.84;;;15.05;77.41
38022;BME280;23832;43.216;27.946;2022-12-26T07:02:32;102033.78;;;15.27;75.06
38022;BME280;23832;43.216;27.946;2022-12-26T07:04:34;102034.25;;;15.47;74.15
38022;BME280;23832;43.216;27.946;2022-12-26T07:06:36;102038.84;;;15.69;73.15
38022;BME280;23832;43.216;27.946;2022-12-26T07:08:39;102038.91;;;15.92;72.24
38022;BME280;23832;43.216;27.946;2022-12-26T07:10:40;102049.59;;;16.15;70.10
38022;BME280;23832;43.216;27.946;2022-12-26T07:12:42;102050.13;;;16.33;67.11
38022;BME280;23832;43.216;27.946;2022-12-26T07:14:44;102045.53;;;16.50;65.40
38022;BME280;23832;43.216;27.946;2022-12-26T07:16:46;102051.41;;;16.68;63.98
38022;BME280;23832;43.216;27.946;2022-12-26T07:18:48;102051.75;;;16.88;63.32
38022;BME280;23832;43.216;27.946;2022-12-26T07:20:49;102051.91;;;17.10;62.97
38022;BME280;23832;43.216;27.946;2022-12-26T07:22:51;102049.16;;;17.33;62.02
38022;BME280;23832;43.216;27.946;2022-12-26T07:24:55;102043.75;;;17.55;61.02
38022;BME280;23832;43.216;27.946;2022-12-26T07:26:57;102043.66;;;17.78;60.60
38022;BME280;23832;43.216;27.946;2022-12-26T07:28:59;102035.72;;;18.00;59.45
38022;BME280;23832;43.216;27.946;2022-12-26T07:31:01;102050.94;;;18.21;57.58
38022;BME280;23832;43.216;27.946;2022-12-26T07:33:02;102048.66;;;18.39;56.00
38022;BME280;23832;43.216;27.946;2022-12-26T07:35:04;102052.31;;;18.53;54.73
38022;BME280;23832;43.216;27.946;2022-12-26T07:37:06;102058.25;;;18.69;54.12
38022;BME280;23832;43.216;27.946;2022-12-26T07:39:08;102049.94;;;18.86;53.71
38022;BME280;23832;43.216;27.946;2022-12-26T07:41:11;102048.06;;;19.08;53.64
38022;BME280;23832;43.216;27.946;2022-12-26T07:43:29;102053.78;;;19.33;53.16
38022;BME280;23832;43.216;27.946;2022-12-26T07:45:31;102048.34;;;19.54;52.62
38022;BME280;23832;43.216;27.946;2022-12-26T07:47:33;102053.41;;;19.77;52.01
38022;BME280;23832;43.216;27.946;2022-12-26T07:49:34;102048.78;;;19.99;51.16
38022;BME280;23832;43.216;27.946;2022-12-26T07:51:36;102054.63;;;20.22;50.87
38022;BME280;23832;43.216;27.946;2022-12-26T07:53:38;102047.06;;;20.46;50.40
38022;BME280;23832;43.216;27.946;2022-12-26T07:55:40;102055.94;;;20.66;49.81
38022;BME280;23832;43.216;27.946;2022-12-26T07:57:43;102059.69;;;20.85;48.99
38022;BME280;23832;43.216;27.946;2022-12-26T07:59:44;102054.09;;;21.00;48.16
38022;BME280;23832;43.216;27.946;2022-12-26T08:01:46;102057.38;;;21.15;47.22
38022;BME280;23832;43.216;27.946;2022-12-26T08:03:51;102050.81;;;21.31;47.16
38022;BME280;23832;43.216;27.946;2022-12-26T08:05:55;102057.38;;;21.48;46.82
38022;BME280;23832;43.216;27.946;2022-12-26T08:07:57;102059.78;;;21.63;46.30
38022;BME280;23832;43.216;27.946;2022-12-26T08:09:59;102065.50;;;21.79;45.57
38022;BME280;23832;43.216;27.946;2022-12-26T08:12:00;102066.47;;;21.92;44.08
38022;BME280;23832;43.216;27.946;2022-12-26T08:14:03;102060.22;;;22.04;43.56
38022;BME280;23832;43.216;27.946;2022-12-26T08:16:05;102050.25;;;22.18;43.01
38022;BME280;23832;43.216;27.946;2022-12-26T08:18:07;102050.19;;;22.31;42.68
38022;BME280;23832;43.216;27.946;2022-12-26T08:20:09;102055.06;;;22.48;42.57
38022;BME280;23832;43.216;27.946;2022-12-26T08:22:11;102059.22;;;22.69;42.96
38022;BME280;23832;43.216;27.946;2022-12-26T08:24:12;102066.13;;;22.89;42.87
38022;BME280;23832;43.216;27.946;2022-12-26T08:26:15;102070.44;;;23.15;42.85
38022;BME280;23832;43.216;27.946;2022-12-26T08:28:21;102056.94;;;23.40;42.54
38022;BME280;23832;43.216;27.946;2022-12-26T08:30:24;102053.16;;;23.66;42.47
38022;BME280;23832;43.216;27.946;2022-12-26T08:32:26;102058.56;;;23.96;42.43
38022;BME280;23832;43.216;27.946;2022-12-26T08:34:30;102048.25;;;24.23;41.93
38022;BME280;23832;43.216;27.946;2022-12-26T08:36:32;102047.31;;;24.48;40.97
38022;BME280;23832;43.216;27.946;2022-12-26T08:38:34;102044.03;;;24.69;40.30
38022;BME280;23832;43.216;27.946;2022-12-26T08:40:37;102040.19;;;24.88;40.19
38022;BME280;23832;43.216;27.946;2022-12-26T08:42:38;102045.28;;;25.08;39.63
38022;BME280;23832;43.216;27.946;2022-12-26T08:44:43;102032.47;;;25.27;38.96
38022;BME280;23832;43.216;27.946;2022-12-26T08:46:46;102027.38;;;25.42;38.39
38022;BME280;23832;43.216;27.946;2022-12-26T08:48:48;102018.78;;;25.57;37.47
38022;BME280;23832;43.216;27.946;2022-12-26T08:50:56;102008.06;;;25.74;37.44
38022;BME280;23832;43.216;27.946;2022-12-26T08:52:57;102023.50;;;25.90;37.28
38022;BME280;23832;43.216;27.946;2022-12-26T08:54:59;102014.13;;;26.10;37.00
38022;BME280;23832;43.216;27.946;2022-12-26T08:57:00;102020.16;;;26.28;36.65
38022;BME280;23832;43.216;27.946;2022-12-26T08:59:02;102021.56;;;26.48;36.33
38022;BME280;23832;43.216;27.946;2022-12-26T09:01:04;102026.47;;;26.68;36.17
38022;BME280;23832;43.216;27.946;2022-12-26T09:03:09;102027.63;;;26.88;35.75
38022;BME280;23832;43.216;27.946;2022-12-26T09:05:10;102016.31;;;27.08;35.50
38022;BME280;23832;43.216;27.946;2022-12-26T09:07:12;102009.25;;;27.29;35.39
38022;BME280;23832;43.216;27.946;2022-12-26T09:09:13;102007.06;;;27.48;34.70
38022;BME280;23832;43.216;27.946;2022-12-26T09:11:15;101997.31;;;27.69;34.53
38022;BME280;23832;43.216;27.946;2022-12-26T09:13:19;101997.78;;;27.88;33.88
38022;BME280;23832;43.216;27.946;2022-12-26T09:15:21;101999.31;;;28.06;33.53
38022;BME280;23832;43.216;27.946;2022-12-26T09:17:22;101988.09;;;28.24;33.27
38022;BME280;23832;43.216;27.946;2022-12-26T09:19:27;101973.34;;;28.42;32.87
38022;BME280;23832;43.216;27.946;2022-12-26T09:21:31;101972.13;;;28.60;32.58
38022;BME280;23832;43.216;27.946;2022-12-26T09:23:37;101976.03;;;28.79;32.50
38022;BME280;23832;43.216;27.946;2022-12-26T09:25:38;101973.72;;;28.98;32.08
38022;BME280;23832;43.216;27.946;2022-12-26T09:27:39;101973.25;;;29.16;31.62
38022;BME280;23832;43.216;27.946;2022-12-26T09:29:41;101964.66;;;29.34;31.37
38022;BME280;23832;43.216;27.946;2022-12-26T09:31:42;101965.53;;;29.55;31.53
38022;BME280;23832;43.216;27.946;2022-12-26T09:33:44;101959.91;;;29.77;31.27
38022;BME280;23832;43.216;27.946;2022-12-26T09:35:48;101958.53;;;30.00;30.89
38022;BME280;23832;43.216;27.946;2022-12-26T09:37:49;101961.03;;;30.22;30.46
38022;BME280;23832;43.216;27.946;2022-12-26T09:39:51;101949.56;;;30.45;30.15
38022;BME280;23832;43.216;27.946;2022-12-26T09:41:55;101948.50;;;30.67;29.67
38022;BME280;23832;43.216;27.946;2022-12-26T09:44:02;101950.56;;;30.90;29.80
38022;BME280;23832;43.216;27.946;2022-12-26T09:46:11;101952.97;;;31.12;29.20
38022;BME280;23832;43.216;27.946;2022-12-26T09:48:17;101949.91;;;31.29;27.69
38022;BME280;23832;43.216;27.946;2022-12-26T09:50:23;101952.06;;;31.37;27.56
38022;BME280;23832;43.216;27.946;2022-12-26T09:52:30;101940.88;;;31.39;26.71
38022;BME280;23832;43.216;27.946;2022-12-26T09:54:35;101949.88;;;31.34;26.08
38022;BME280;23832;43.216;27.946;2022-12-26T09:56:38;101946.09;;;31.25;25.81
38022;BME280;23832;43.216;27.946;2022-12-26T09:58:40;101957.56;;;31.17;25.87
38022;BME280;23832;43.216;27.946;2022-12-26T10:00:44;101952.16;;;31.12;26.02
38022;BME280;23832;43.216;27.946;2022-12-26T10:02:50;101945.59;;;31.13;26.03
38022;BME280;23832;43.216;27.946;2022-12-26T10:04:53;101945.56;;;31.23;26.28
38022;BME280;23832;43.216;27.946;2022-12-26T10:06:56;101946.63;;;31.32;25.73
38022;BME280;23832;43.216;27.946;2022-12-26T10:09:06;101937.34;;;31.38;24.95
38022;BME280;23832;43.216;27.946;2022-12-26T10:11:13;101933.75;;;31.43;25.33
38022;BME280;23832;43.216;27.946;2022-12-26T10:13:20;101939.47;;;31.46;25.00
38022;BME280;23832;43.216;27.946;2022-12-26T10:15:28;101935.94;;;31.41;23.94
38022;BME280;23832;43.216;27.946;2022-12-26T10:17:32;101939.00;;;31.29;23.22
38022;BME280;23832;43.216;27.946;2022-12-26T10:19:41;101940.09;;;31.18;24.00
38022;BME280;23832;43.216;27.946;2022-12-26T10:21:46;101930.03;;;31.18;24.32
38022;BME280;23832;43.216;27.946;2022-12-26T10:23:52;101940.38;;;31.26;24.13
38022;BME280;23832;43.216;27.946;2022-12-26T10:25:59;101928.34;;;31.38;24.52
38022;BME280;23832;43.216;27.946;2022-12-26T10:28:04;101939.09;;;31.58;24.52
38022;BME280;23832;43.216;27.946;2022-12-26T10:30:13;101921.56;;;31.74;23.71
38022;BME280;23832;43.216;27.946;2022-12-26T10:32:17;101915.25;;;31.84;23.50
38022;BME280;23832;43.216;27.946;2022-12-26T10:34:22;101911.91;;;31.92;23.27
38022;BME280;23832;43.216;27.946;2022-12-26T10:36:30;101904.19;;;31.99;23.55
38022;BME280;23832;43.216;27.946;2022-12-26T10:38:33;101910.09;;;32.11;23.82
38022;BME280;23832;43.216;27.946;2022-12-26T10:40:37;101917.59;;;32.25;23.68
38022;BME280;23832;43.216;27.946;2022-12-26T10:42:43;101908.25;;;32.36;23.42
38022;BME280;23832;43.216;27.946;2022-12-26T10:44:45;101914.44;;;32.41;23.14
38022;BME280;23832;43.216;27.946;2022-12-26T10:46:56;101907.31;;;32.45;23.14
38022;BME280;23832;43.216;27.946;2022-12-26T10:48:59;101911.56;;;32.57;23.56
38022;BME280;23832;43.216;27.946;2022-12-26T10:51:04;101912.25;;;32.67;23.43
38022;BME280;23832;43.216;27.946;2022-12-26T10:53:05;101910.16;;;32.83;23.48